Latest Coastal Weather Observations for Tasman Island

IDT60701

Issued at 11:52 am EDT Tuesday 2 March 2021 (issued every 10 minutes, with the page automatically refreshed every 10 minutes)

About coastal observations | Map of coastal stations | Coastal observations for TAS | Marine services | Other Formats
Station Details ID: 094155 Name: TASMAN ISLAND Lat: -43.24 Lon: 148.00 Height: 240.0 m
Data from the previous 72 hours. | See also: Recent months at Tasman Island
Date/Time
EDT
Wind Sea
Height
m
Swell Vis
km
Cloud Weather Temp
°C
Press
MSL
hPa
Rain since
9am
mm
Dir  Spd
kts
Gust
kts
Height
m
Period
s
Dir
02/11:30am SSW 23 38 - - - - - - - 10.2 1011.7 0.2
02/11:00am SSW 20 38 - - - - - - - 10.1 1011.4 0.2
02/10:30am SW 23 41 - - - - - - - 9.8 1011.1 0.2
02/10:00am SW 28 55 - - - - - - - 8.2 1011.1 0.2
02/09:52am SSW 25 55 - - - - - - - 9.3 1010.6 0.0
02/09:30am SSW 21 38 - - - - - - - 10.4 1010.7 0.0
02/09:00am SSW 26 43 - - - - - - Rain 8.3 1010.3 19.2
02/08:30am SSW 26 47 - - - - - - - 8.8 1009.8 18.6
02/08:00am SW 32 47 - - - - - - - 9.8 1009.1 18.6
02/07:30am SW 32 51 - - - - - - - 10.3 1008.5 18.6
02/07:26am SW 31 51 - - - - - - - 10.4 1008.4 18.6
02/07:00am SSW 22 39 - - - - - - - 9.9 1008.4 18.6
02/06:30am SSW 28 44 - - - - - - - 10.3 1007.7 18.6
02/06:00am SSW 25 43 - - - - - - - 10.5 1007.3 18.6
02/05:56am SSW 26 43 - - - - - - - 10.4 1007.3 18.6
02/05:55am SSW 26 44 - - - - - - - 10.4 1007.4 18.6
02/05:47am SSW 26 44 - - - - - - - 10.7 1007.2 18.6
02/05:46am SSW 26 44 - - - - - - - 10.8 1007.1 18.6
02/05:30am SSW 23 40 - - - - - - - 10.7 1007.0 18.6
02/05:00am SW 31 51 - - - - - - - 9.5 1006.5 18.6
02/04:30am SSW 27 43 - - - - - - - 10.7 1006.1 18.2
02/04:00am SSW 28 45 - - - - - - - 10.6 1005.6 18.2
02/03:30am SSW 27 44 - - - - - - - 10.3 1004.9 17.8
02/03:00am SSW 27 44 - - - - - - Recent precip. 10.7 1004.2 17.6
02/02:30am SSW 29 50 - - - - - - - 10.9 1003.8 17.2
02/02:00am SSW 28 53 - - - - - - - 10.5 1002.9 16.8
02/01:30am SSW 27 42 - - - - - - - 11.1 1002.8 15.0
02/01:00am SSW 32 46 - - - - - - - 12.4 1001.8 14.2
02/12:30am SSW 25 44 - - - - - - - 11.9 1001.5 14.2
02/12:00am SW 30 46 - - - - - - Rain 11.3 1000.8 14.2
 
Date/Time
EDT
Wind Sea
Height
m
Swell Vis
km
Cloud Weather Temp
°C
Press
MSL
hPa
Rain since
9am
mm
Dir  Spd
kts
Gust
kts
Height
m
Period
s
Dir
01/11:30pm SW 31 50 - - - - - - - 11.5 1000.2 13.4
01/11:00pm SW 31 46 - - - - - - - 11.8 1000.3 13.4
01/10:30pm SSW 25 42 - - - - - - - 11.4 1000.0 13.4
01/10:17pm SW 20 35 - - - - - - - 11.3 999.9 13.4
01/10:00pm WSW 15 29 - - - - - - - 11.5 999.7 12.2
01/09:38pm WSW 15 32 - - - - - - - 11.2 999.6 12.2
01/09:30pm WSW 9 27 - - - - - - - 11.4 999.6 11.8
01/09:00pm WSW 9 28 - - - - - - - 10.8 999.8 11.8
01/08:30pm W 7 26 - - - - - - - 10.2 999.7 11.8
01/08:00pm WSW 11 30 - - - - - - - 11.1 999.2 11.8
01/07:30pm WSW 16 30 - - - - - - - 10.9 999.0 11.8
01/07:00pm WSW 17 38 - - - - - - - 10.6 999.4 11.8
01/06:47pm WSW 17 43 - - - - - - - 10.9 999.0 11.6
01/06:37pm WSW 15 31 - - - - - - - 11.1 999.1 11.6
01/06:30pm SW 13 29 - - - - - - - 11.3 999.2 11.6
01/06:00pm WSW 11 30 - - - - - - - 11.1 999.8 11.6
01/05:30pm WSW 15 36 - - - - - - - 11.1 999.6 11.6
01/05:00pm SW 16 36 - - - - - - - 10.7 999.3 11.6
01/04:52pm WSW 13 36 - - - - - - - 10.4 999.1 11.2
01/04:30pm W 8 20 - - - - - - - 9.4 1000.4 7.6
01/04:19pm WSW 11 37 - - - - - - - 10.3 1000.1 1.6
01/04:00pm SSE 7 9 - - - - - - - 14.3 1000.0 0.2
01/03:30pm SE 6 9 - - - - - - - 14.6 1000.2 0.2
01/03:00pm SE 4 6 - - - - - - Recent precip. 14.6 1000.8 0.2
01/02:30pm SE 4 6 - - - - - - - 14.3 1001.7 0.2
01/02:00pm SSW 4 6 - - - - - - - 14.6 1002.5 0.0
01/01:30pm SSW 4 7 - - - - - - - 14.8 1003.0 0.0
01/01:00pm SW 5 8 - - - - - - - 15.2 1003.6 0.0
01/12:30pm SW 7 12 - - - - - - - 14.6 1004.1 0.0
01/12:00pm WSW 5 10 - - - - - - - 14.2 1004.5 0.0
01/11:30am WSW 6 10 - - - - - - - 14.3 1004.9 0.0
01/11:00am SW 5 13 - - - - - - - 14.0 1005.2 0.0
01/10:30am WSW 6 13 - - - - - - - 14.2 1005.3 0.0
01/10:00am WSW 4 12 - - - - - - - 14.4 1005.5 0.0
01/09:30am NW 2 5 - - - - - - - 14.2 1005.7 0.0
01/09:00am WNW 5 9 - - - - - - - 14.0 1005.8 2.2
01/08:30am WNW 3 6 - - - - - - - 13.9 1005.8 2.2
01/08:00am WNW 5 8 - - - - - - - 13.9 1006.1 2.2
01/07:30am WNW 4 6 - - - - - - - 13.7 1006.3 2.2
01/07:00am WNW 3 6 - - - - - - - 13.9 1006.2 1.6
01/06:30am NNW 6 9 - - - - - - - 14.0 1006.3 1.4
01/06:00am NNW 6 8 - - - - - - - 14.1 1006.4 1.0
01/05:30am N 7 10 - - - - - - - 14.2 1006.7 1.0
01/05:00am N 8 10 - - - - - - - 14.1 1007.0 1.0
01/04:30am N 9 15 - - - - - - - 14.2 1007.4 1.0
01/04:00am NNE 6 11 - - - - - - - 14.6 1007.3 0.4
01/03:30am NNE 6 9 - - - - - - - 14.3 1007.7 0.2
01/03:00am N 7 11 - - - - - - Rain 14.1 1008.1 0.2
01/02:30am N 7 11 - - - - - - - 14.3 1008.6 0.0
01/02:00am NNE 8 12 - - - - - - - 14.6 1008.8 0.0
01/01:30am NNE 9 12 - - - - - - - 14.5 1009.0 0.0
01/01:00am NNE 7 10 - - - - - - - 14.4 1009.5 0.0
01/12:30am NNE 8 11 - - - - - - - 14.3 1010.0 0.0
01/12:00am NNE 7 11 - - - - - - - 14.2 1010.4 0.0
 
Date/Time
EDT
Wind Sea
Height
m
Swell Vis
km
Cloud Weather Temp
°C
Press
MSL
hPa
Rain since
9am
mm
Dir  Spd
kts
Gust
kts
Height
m
Period
s
Dir
28/11:30pm NNE 7 11 - - - - - - - 14.0 1010.6 0.0
28/11:00pm NNE 6 9 - - - - - - - 13.8 1010.9 0.0
28/10:30pm NE 5 7 - - - - - - - 13.9 1011.1 0.0
28/10:00pm NNE 3 8 - - - - - - - 14.0 1011.5 0.0
28/09:30pm NE 3 5 - - - - - - - 14.0 1011.4 0.0
28/09:00pm ENE 3 6 - - - - - - - 13.8 1011.5 0.0
28/08:30pm ENE 2 4 - - - - - - - 13.8 1011.5 0.0
28/08:00pm NE 3 5 - - - - - - - 13.9 1011.3 0.0
28/07:30pm E 4 7 - - - - - - - 14.2 1011.2 0.0
28/07:00pm E 2 5 - - - - - - - 14.5 1011.2 0.0
28/06:30pm E 3 5 - - - - - - - 14.5 1011.2 0.0
28/06:00pm E 5 8 - - - - - - - 15.2 1011.2 0.0
28/05:30pm E 3 6 - - - - - - - 15.7 1011.1 0.0
28/05:00pm E 5 8 - - - - - - - 16.1 1011.2 0.0
28/04:30pm ESE 5 8 - - - - - - - 15.8 1011.2 0.0
28/04:00pm ESE 5 7 - - - - - - - 16.1 1011.3 0.0
28/03:30pm ESE 4 6 - - - - - - - 16.6 1011.6 0.0
28/03:00pm ESE 4 6 - - - - - - - 16.6 1011.8 0.0
28/02:30pm ESE 4 7 - - - - - - - 15.8 1012.0 0.0
28/02:00pm ESE 4 7 - - - - - - - 16.2 1012.3 0.0
28/01:30pm ESE 4 7 - - - - - - - 15.9 1012.4 0.0
28/01:00pm ESE 4 7 - - - - - - - 15.2 1012.7 0.0
28/12:30pm SSE 3 6 - - - - - - - 14.7 1013.0 0.0
28/12:00pm SW 3 5 - - - - - - - 15.0 1013.3 0.0
28/11:30am WSW 4 7 - - - - - - - 16.5 1013.4 0.0
28/11:00am WSW 4 6 - - - - - - - 15.8 1013.4 0.0
28/10:30am W 3 5 - - - - - - - 15.2 1013.5 0.0
28/10:00am W 3 6 - - - - - - - 14.9 1013.7 0.0
28/09:30am W 2 5 - - - - - - - 14.8 1013.7 0.0
28/09:00am WSW 3 5 - - - - - - - 15.6 1013.6 0.0
28/08:30am WNW 2 3 - - - - - - - 14.3 1013.6 0.0
28/08:00am W 2 4 - - - - - - - 14.0 1013.5 0.0
28/07:30am NW 1 2 - - - - - - - 12.9 1013.4 0.0
28/07:00am W 3 5 - - - - - - - 12.8 1013.3 0.0
28/06:30am W 2 4 - - - - - - - 12.8 1013.3 0.0
28/06:00am N 2 2 - - - - - - - 12.8 1013.1 0.0
28/05:30am WNW 3 5 - - - - - - - 13.0 1013.3 0.0
28/05:00am WNW 2 3 - - - - - - - 12.9 1013.4 0.0
28/04:30am N 1 1 - - - - - - - 13.0 1013.3 0.0
28/04:00am CALM 0 0 - - - - - - - 13.2 1013.5 0.0
28/03:30am CALM 0 1 - - - - - - - 13.1 1013.4 0.0
28/03:00am SSE 1 2 - - - - - - - 13.1 1013.4 0.0
28/02:30am SE 2 3 - - - - - - - 13.2 1013.6 0.0
28/02:00am E 1 3 - - - - - - - 13.1 1013.9 0.0
28/01:30am NW 1 2 - - - - - - - 13.0 1014.2 0.0
28/01:00am E 1 4 - - - - - - - 12.9 1014.3 0.0
28/12:30am S 3 5 - - - - - - - 13.0 1014.4 0.0
28/12:00am SSE 3 6 - - - - - - - 13.1 1014.6 0.0
 
Date/Time
EDT
Wind Sea
Height
m
Swell Vis
km
Cloud Weather Temp
°C
Press
MSL
hPa
Rain since
9am
mm
Dir  Spd
kts
Gust
kts
Height
m
Period
s
Dir
27/11:30pm SSE 3 6 - - - - - - - 13.1 1014.8 0.0
27/11:00pm SSE 2 5 - - - - - - - 12.9 1015.0 0.0
27/10:30pm SSE 4 6 - - - - - - - 12.9 1015.0 0.0
27/10:00pm S 3 8 - - - - - - - 13.0 1015.0 0.0
27/09:30pm SSE 2 5 - - - - - - - 13.0 1015.1 0.0
27/09:00pm SSW 4 8 - - - - - - - 13.1 1015.1 0.0
27/08:30pm S 3 6 - - - - - - - 12.9 1014.8 0.0
27/08:00pm S 3 6 - - - - - - - 12.9 1014.6 0.0
27/07:30pm S 3 6 - - - - - - - 13.1 1014.3 0.0
27/07:00pm SSE 5 9 - - - - - - - 13.3 1014.2 0.0
27/06:30pm SSE 4 8 - - - - - - - 13.5 1014.1 0.0
27/06:00pm SE 6 10 - - - - - - - 13.3 1014.1 0.0
27/05:30pm SE 6 9 - - - - - - - 13.7 1014.1 0.0
27/05:00pm SSE 5 10 - - - - - - - 14.1 1014.2 0.0
27/04:30pm SSE 6 9 - - - - - - - 14.4 1014.2 0.0
27/04:00pm SSE 7 9 - - - - - - - 14.3 1014.3 0.0
27/03:30pm S 6 10 - - - - - - - 15.5 1014.4 0.0
27/03:00pm S 6 10 - - - - - - - 14.6 1014.7 0.0
27/02:30pm SSW 6 10 - - - - - - - 15.3 1015.0 0.0
27/02:00pm SSW 6 9 - - - - - - - 14.9 1015.2 0.0
27/01:30pm SW 6 10 - - - - - - - 14.3 1015.3 0.0
27/01:00pm SW 5 8 - - - - - - - 13.8 1015.4 0.0
27/12:30pm WSW 6 10 - - - - - - - 14.1 1015.5 0.0
27/12:00pm WSW 6 10 - - - - - - - 14.1 1015.8 0.0

Other formats

Comma delimited format used in spreadsheet applications
http://www.bom.gov.au/fwo/IDT60701/IDT60701.95986.axf

JavaScript Object Notation format (JSON) in row-major order
http://www.bom.gov.au/fwo/IDT60701/IDT60701.95986.json

Data quality

Most of these data are generated automatically and are frequently updated. Quality checks on data are not normally performed. It is possible for incorrect values to appear. Refer to information at About Latest Weather Observations and please check the disclaimer before using these data.